Time;durP1;ratioP1;P1;durP2;ratioP2;P2;SDS_P1;SDS_P2;PMS_P1;PMS_P2;Temp;Humidity;BMP_temperature;BMP_pressure;BME280_temperature;BME280_humidity;BME280_pressure;Samples;Min_cycle;Max_cycle;Signal;HPM_P1;HPM_P2
2021/12/19 00:00:09;;;;;;;89.57;37.15;;;;;;;-1.49;100.00;97331.94;1021240;29;20173;-71
2021/12/19 00:00:40;;;;;;;99.76;38.08;;;;;;;-1.46;100.00;97341.13;1021775;28;20440;-71
2021/12/19 00:01:24;;;;;;;93.53;36.38;;;;;;;-1.55;100.00;97327.38;1021691;28;20050;-72
2021/12/19 00:02:43;;;;;;;97.72;38.17;;;;;;;-1.52;100.00;97339.94;1017740;28;20016;-71
2021/12/19 00:04:35;;;;;;;97.44;38.86;;;;;;;-1.64;100.00;97332.56;1024438;28;20291;-71
2021/12/19 00:09:00;;;;;;;101.86;37.12;;;;;;;-1.61;100.00;97337.44;1021024;29;20058;-70
2021/12/19 00:09:30;;;;;;;98.68;36.92;;;;;;;-1.68;100.00;97332.06;1019207;29;20046;-72
2021/12/19 00:10:01;;;;;;;92.60;34.47;;;;;;;-1.67;100.00;97328.56;1018811;29;20031;-69
2021/12/19 00:10:31;;;;;;;88.63;34.17;;;;;;;-1.72;100.00;97326.41;1017646;29;20473;-70
2021/12/19 00:11:02;;;;;;;88.35;35.75;;;;;;;-1.74;100.00;97323.19;1024953;28;20446;-71
2021/12/19 00:11:33;;;;;;;95.72;36.80;;;;;;;-1.75;100.00;97326.69;1025756;28;20029;-70
2021/12/19 00:12:04;;;;;;;99.80;36.85;;;;;;;-1.76;100.00;97332.78;1013904;29;20036;-71
2021/12/19 00:12:34;;;;;;;93.38;37.20;;;;;;;-1.75;100.00;97331.84;1018344;29;20028;-73
2021/12/19 00:13:06;;;;;;;100.20;38.58;;;;;;;-1.76;100.00;97325.06;1017945;29;20064;-70
2021/12/19 00:13:40;;;;;;;100.24;38.86;;;;;;;-1.72;100.00;97330.75;1026033;28;20031;-72
2021/12/19 00:14:10;;;;;;;97.70;37.80;;;;;;;-1.70;100.00;97334.00;1021052;29;20182;-72
2021/12/19 00:14:41;;;;;;;104.97;39.00;;;;;;;-1.71;100.00;97329.78;1018798;29;20427;-70
2021/12/19 00:15:11;;;;;;;102.80;38.88;;;;;;;-1.81;100.00;97321.31;1015829;28;20055;-71
2021/12/19 00:15:42;;;;;;;106.07;40.30;;;;;;;-1.80;100.00;97328.09;1014040;29;20498;-70
2021/12/19 00:16:12;;;;;;;100.68;37.55;;;;;;;-1.83;100.00;97324.03;1025761;28;20099;-72
2021/12/19 00:16:43;;;;;;;114.45;39.80;;;;;;;-1.81;100.00;97326.47;1029074;28;20027;-71
2021/12/19 00:17:13;;;;;;;106.28;38.92;;;;;;;-1.82;100.00;97324.84;1018112;29;20127;-71
2021/12/19 00:17:44;;;;;;;105.78;40.28;;;;;;;-1.87;100.00;97320.16;1018883;29;20066;-72
2021/12/19 00:18:14;;;;;;;104.47;39.38;;;;;;;-1.77;100.00;97330.38;1022063;28;20062;-72
2021/12/19 00:18:47;;;;;;;109.93;39.28;;;;;;;-1.73;100.00;97329.13;1018406;29;20079;-71
2021/12/19 00:19:18;;;;;;;104.38;39.02;;;;;;;-1.73;100.00;97335.09;1022275;29;20054;-71
2021/12/19 00:19:48;;;;;;;106.93;39.97;;;;;;;-1.77;100.00;97333.75;1022095;28;20504;-72
2021/12/19 00:20:18;;;;;;;111.88;41.05;;;;;;;-1.76;100.00;97332.78;1021213;28;20362;-72
2021/12/19 00:20:49;;;;;;;106.50;40.58;;;;;;;-1.74;100.00;97333.47;1019587;29;20039;-71
2021/12/19 00:21:21;;;;;;;104.75;40.55;;;;;;;-1.71;100.00;97338.34;1018378;29;20035;-70
2021/12/19 00:21:51;;;;;;;107.62;41.00;;;;;;;-1.70;100.00;97334.00;1016004;29;20024;-71
2021/12/19 00:22:22;;;;;;;107.22;40.30;;;;;;;-1.66;100.00;97325.81;1018056;29;20024;-71
2021/12/19 00:22:52;;;;;;;109.32;42.20;;;;;;;-1.70;100.00;97327.06;1024404;28;20059;-71
2021/12/19 00:23:23;;;;;;;107.20;40.90;;;;;;;-1.67;100.00;97326.78;1014724;29;20060;-71
2021/12/19 00:23:54;;;;;;;111.88;41.15;;;;;;;-1.72;100.00;97320.44;1016720;29;20062;-70
2021/12/19 00:24:24;;;;;;;102.30;39.90;;;;;;;-1.72;100.00;97320.44;1018097;29;20024;-71
2021/12/19 00:24:55;;;;;;;104.25;39.17;;;;;;;-1.75;100.00;97331.03;1016773;29;20036;-71
2021/12/19 00:25:25;;;;;;;107.18;39.33;;;;;;;-1.85;100.00;97325.94;1021901;28;20050;-73
2021/12/19 00:25:56;;;;;;;114.97;41.78;;;;;;;-1.83;100.00;97325.81;1024790;28;20054;-72
2021/12/19 00:26:26;;;;;;;104.82;38.28;;;;;;;-1.88;100.00;97325.44;1030108;28;20018;-71
2021/12/19 00:26:57;;;;;;;107.15;38.75;;;;;;;-1.84;100.00;97337.88;1022068;28;20110;-72
2021/12/19 00:27:27;;;;;;;119.80;39.97;;;;;;;-1.87;100.00;97332.22;1026240;28;20315;-71
2021/12/19 00:27:58;;;;;;;120.20;38.53;;;;;;;-1.94;100.00;97337.13;1026253;28;20019;-71
2021/12/19 00:28:29;;;;;;;123.93;40.90;;;;;;;-1.95;100.00;97326.00;1025694;28;20078;-72
2021/12/19 00:29:03;;;;;;;115.93;39.05;;;;;;;-1.92;100.00;97330.84;1022255;28;20031;-69
2021/12/19 00:29:34;;;;;;;117.52;39.90;;;;;;;-1.96;100.00;97329.53;1026315;28;20022;-69
2021/12/19 00:30:04;;;;;;;122.30;39.00;;;;;;;-1.99;100.00;97331.59;1021560;29;20777;-72
2021/12/19 00:30:35;;;;;;;142.82;40.78;;;;;;;-2.06;100.00;97317.69;1024482;28;20043;-71
2021/12/19 00:31:06;;;;;;;124.03;38.47;;;;;;;-1.99;100.00;97331.59;1013133;29;20371;-73
2021/12/19 00:31:37;;;;;;;142.38;43.17;;;;;;;-2.08;100.00;97314.44;1023083;29;20051;-71
2021/12/19 00:32:08;;;;;;;135.28;40.10;;;;;;;-2.08;100.00;97312.69;1026736;28;20026;-72
2021/12/19 00:32:40;;;;;;;135.43;40.53;;;;;;;-2.05;100.00;97324.44;1022867;28;20520;-69
2021/12/19 00:33:10;;;;;;;145.68;42.04;;;;;;;-2.06;100.00;97323.63;1025957;28;20017;-72
2021/12/19 00:33:41;;;;;;;130.52;40.47;;;;;;;-1.94;100.00;97334.56;1022537;29;20050;-71
2021/12/19 00:34:13;;;;;;;128.85;40.85;;;;;;;-1.97;100.00;97332.25;1022998;29;20035;-73
2021/12/19 00:34:44;;;;;;;136.18;41.52;;;;;;;-2.00;100.00;97333.34;1026830;28;20109;-71
2021/12/19 00:35:14;;;;;;;129.48;41.38;;;;;;;-2.01;100.00;97330.91;1022327;29;20238;-70
2021/12/19 00:35:45;;;;;;;147.90;42.67;;;;;;;-1.99;100.00;97334.16;1023008;29;20118;-71
2021/12/19 00:36:16;;;;;;;139.45;42.65;;;;;;;-2.01;100.00;97331.75;1023128;29;20101;-72
2021/12/19 00:36:46;;;;;;;131.08;41.02;;;;;;;-1.98;100.00;97331.47;1022891;29;20401;-70
2021/12/19 00:37:20;;;;;;;141.27;42.58;;;;;;;-1.96;100.00;97331.31;1015954;29;20041;-71
2021/12/19 00:37:51;;;;;;;139.68;42.38;;;;;;;-1.95;100.00;97330.34;1023050;29;20019;-71
2021/12/19 00:38:22;;;;;;;151.45;42.10;;;;;;;-1.96;100.00;97323.59;1015065;29;20115;-71
2021/12/19 00:38:52;;;;;;;141.43;40.88;;;;;;;-2.00;100.00;97312.78;1016807;29;20024;-70
2021/12/19 00:39:23;;;;;;;130.43;40.90;;;;;;;-1.92;100.00;97312.03;1022873;29;20344;-71
2021/12/19 00:39:53;;;;;;;121.90;40.60;;;;;;;-1.92;100.00;97306.91;1013358;29;20498;-72
2021/12/19 00:40:24;;;;;;;133.77;40.90;;;;;;;-1.90;100.00;97310.16;1025686;28;20023;-68
2021/12/19 00:40:54;;;;;;;148.85;41.55;;;;;;;-1.95;100.00;97304.63;1018680;29;20056;-72
2021/12/19 00:41:25;;;;;;;167.77;41.88;;;;;;;-1.95;100.00;97304.63;1022939;29;20019;-70
2021/12/19 00:41:55;;;;;;;165.15;42.75;;;;;;;-2.01;100.00;97302.63;1015062;29;20051;-71
2021/12/19 00:42:27;;;;;;;150.18;40.97;;;;;;;-2.04;100.00;97308.06;1022814;29;20473;-71
2021/12/19 00:43:04;;;;;;;153.06;41.84;;;;;;;-2.07;100.00;97295.50;1022928;28;20283;-70
2021/12/19 00:43:45;;;;;;;151.18;43.48;;;;;;;-2.01;100.00;97311.16;1031040;28;20360;-70
2021/12/19 00:44:22;;;;;;;140.48;41.86;;;;;;;-1.97;100.00;97311.69;1019033;29;20367;-71
2021/12/19 00:44:53;;;;;;;170.24;44.44;;;;;;;-2.05;100.00;97298.72;1019203;29;20334;-71
2021/12/19 00:45:29;;;;;;;145.80;41.55;;;;;;;-1.96;100.00;97306.38;1018853;29;20020;-72
2021/12/19 00:46:07;;;;;;;133.74;42.00;;;;;;;-1.94;100.00;97306.25;1018964;29;20107;-70
2021/12/19 00:46:46;;;;;;;149.38;43.28;;;;;;;-1.95;100.00;97309.75;1027102;28;20034;-71
2021/12/19 00:47:17;;;;;;;175.50;43.32;;;;;;;-1.92;100.00;97309.47;1022657;29;20059;-72
2021/12/19 00:47:47;;;;;;;154.70;44.58;;;;;;;-1.94;100.00;97307.06;1022953;29;20031;-71
2021/12/19 00:48:18;;;;;;;160.10;43.80;;;;;;;-1.91;100.00;97313.69;1027019;28;20054;-71
2021/12/19 00:48:51;;;;;;;268.17;50.90;;;;;;;-2.01;100.00;97302.63;1024528;28;20019;-70
2021/12/19 00:49:22;;;;;;;165.48;45.54;;;;;;;-1.95;100.00;97304.63;1018945;29;20598;-71
2021/12/19 00:49:54;;;;;;;189.34;47.72;;;;;;;-1.90;100.00;97303.25;1025037;28;20030;-70
2021/12/19 00:50:26;;;;;;;206.34;47.76;;;;;;;-1.91;100.00;97295.69;1026437;28;20608;-71
2021/12/19 00:50:56;;;;;;;264.22;51.46;;;;;;;-1.88;100.00;97297.13;1025892;28;20073;-72
2021/12/19 00:51:27;;;;;;;187.32;46.70;;;;;;;-1.91;100.00;97291.34;1022911;29;20110;-70
2021/12/19 00:51:58;;;;;;;192.57;46.80;;;;;;;-1.95;100.00;97281.47;1027012;28;20464;-71
2021/12/19 00:52:28;;;;;;;257.13;51.47;;;;;;;-1.90;100.00;97292.94;1022895;28;20050;-71
2021/12/19 00:52:59;;;;;;;191.85;47.58;;;;;;;-1.99;100.00;97277.56;1026944;28;20774;-70
2021/12/19 00:53:29;;;;;;;206.25;48.17;;;;;;;-1.94;100.00;97293.41;1018830;29;20394;-70
2021/12/19 00:54:00;;;;;;;235.82;50.38;;;;;;;-2.00;100.00;97281.13;1018788;29;20122;-71
2021/12/19 00:54:30;;;;;;;262.10;49.17;;;;;;;-1.96;100.00;97292.72;1019065;29;20268;-70
2021/12/19 00:55:01;;;;;;;256.98;52.70;;;;;;;-1.98;100.00;97292.88;1026945;28;20511;-71
2021/12/19 00:55:31;;;;;;;222.60;50.22;;;;;;;-1.95;100.00;97295.13;1018920;29;20032;-71
2021/12/19 00:56:02;;;;;;;223.23;48.50;;;;;;;-1.90;100.00;97289.56;1019313;28;20504;-72
2021/12/19 00:56:33;;;;;;;219.88;46.72;;;;;;;-1.87;100.00;97291.84;1027128;28;20420;-71
2021/12/19 00:57:03;;;;;;;242.77;50.83;;;;;;;-2.02;100.00;97277.88;1014942;29;20062;-70
2021/12/19 00:57:34;;;;;;;268.17;51.20;;;;;;;-1.95;100.00;97290.00;1020557;28;20034;-70
2021/12/19 00:58:04;;;;;;;276.77;54.03;;;;;;;-1.96;100.00;97292.72;1022879;29;20027;-70
2021/12/19 00:58:35;;;;;;;232.95;49.63;;;;;;;-1.96;100.00;97287.56;1026997;28;20046;-71
2021/12/19 00:59:05;;;;;;;239.85;50.95;;;;;;;-1.97;100.00;97288.53;1016637;29;20394;-72
2021/12/19 00:59:36;;;;;;;243.55;49.08;;;;;;;-1.96;100.00;97282.44;1026788;28;20019;-70
2021/12/19 01:00:08;;;;;;;266.10;49.90;;;;;;;-1.94;100.00;97285.69;1026216;28;20060;-70
2021/12/19 01:00:38;;;;;;;372.34;52.24;;;;;;;-1.94;100.00;97290.81;1018894;29;20024;-71
2021/12/19 01:01:09;;;;;;;258.75;51.33;;;;;;;-1.97;100.00;97285.97;1018219;29;20043;-71
2021/12/19 01:01:40;;;;;;;275.42;52.83;;;;;;;-1.97;100.00;97285.97;1022852;29;20039;-72
2021/12/19 01:02:10;;;;;;;245.88;51.83;;;;;;;-2.06;100.00;97268.84;1022764;29;20501;-71
2021/12/19 01:02:41;;;;;;;303.02;54.15;;;;;;;-1.99;100.00;97287.88;1011716;29;20060;-72
2021/12/19 01:03:11;;;;;;;264.63;47.17;;;;;;;-1.94;100.00;97281.34;1016537;29;20133;-71
2021/12/19 01:03:47;;;;;;;237.95;50.30;;;;;;;-1.92;100.00;97287.13;1011927;29;20429;-70
2021/12/19 01:04:18;;;;;;;266.42;50.38;;;;;;;-1.86;100.00;97285.75;1017057;29;20691;-71
2021/12/19 01:04:48;;;;;;;214.38;47.60;;;;;;;-1.85;100.00;97284.78;1028234;28;20026;-70
2021/12/19 01:05:19;;;;;;;324.67;54.05;;;;;;;-1.86;100.00;97290.09;1019004;29;20110;-71
2021/12/19 01:05:50;;;;;;;310.25;51.05;;;;;;;-1.87;100.00;97283.34;1028490;28;20453;-71
2021/12/19 01:06:21;;;;;;;248.27;50.55;;;;;;;-1.90;100.00;97287.81;1014976;29;20078;-71
2021/12/19 01:06:51;;;;;;;335.13;54.15;;;;;;;-1.94;100.00;97285.69;1017187;29;20087;-73
2021/12/19 01:07:22;;;;;;;233.57;46.80;;;;;;;-1.94;100.00;97291.63;1022625;29;20027;-71
2021/12/19 01:07:52;;;;;;;363.23;50.95;;;;;;;-1.98;100.00;97287.72;1020170;28;20034;-71
2021/12/19 01:08:23;;;;;;;309.30;50.47;;;;;;;-2.09;100.00;97284.53;1022879;29;20031;-71
2021/12/19 01:08:53;;;;;;;351.83;55.55;;;;;;;-1.99;100.00;97303.28;1026099;28;20023;-72
2021/12/19 01:09:24;;;;;;;375.52;54.88;;;;;;;-1.99;100.00;97301.53;1022873;28;20038;-73
2021/12/19 01:09:54;;;;;;;270.67;51.58;;;;;;;-1.97;100.00;97301.41;1025806;28;20412;-73
2021/12/19 01:10:25;;;;;;;230.50;48.63;;;;;;;-1.92;100.00;97294.03;1022890;28;20469;-71
2021/12/19 01:10:55;;;;;;;328.08;52.50;;;;;;;-1.94;100.00;97296.78;1029930;28;20023;-73
2021/12/19 01:11:25;;;;;;;375.45;53.55;;;;;;;-1.90;100.00;97290.38;1022502;29;20058;-72
2021/12/19 01:11:56;;;;;;;323.02;51.35;;;;;;;-2.00;100.00;97274.19;1023732;28;20038;-71
2021/12/19 01:12:27;;;;;;;560.10;61.67;;;;;;;-1.99;100.00;97287.88;1022945;28;20048;-70
2021/12/19 01:12:57;;;;;;;364.13;52.45;;;;;;;-2.00;100.00;97286.25;1025073;28;20015;-73
2021/12/19 01:13:28;;;;;;;358.48;54.03;;;;;;;-2.11;100.00;97274.41;1026234;28;20523;-71
2021/12/19 01:13:58;;;;;;;580.60;63.22;;;;;;;-2.10;100.00;97282.94;1030797;28;20026;-70
2021/12/19 01:14:29;;;;;;;449.08;55.90;;;;;;;-2.18;100.00;97273.34;1029068;28;20027;-70
2021/12/19 01:14:59;;;;;;;423.75;58.47;;;;;;;-2.13;100.00;97282.25;1030332;28;20037;-69
2021/12/19 01:15:29;;;;;;;481.50;55.58;;;;;;;-2.10;100.00;97286.31;1026447;28;20072;-71
2021/12/19 01:16:01;;;;;;;371.75;52.22;;;;;;;-2.18;100.00;97257.94;1026682;28;20038;-70
2021/12/19 01:16:32;;;;;;;453.48;58.06;;;;;;;-2.13;100.00;97266.84;1022990;28;20031;-72
2021/12/19 01:17:03;;;;;;;351.20;51.70;;;;;;;-2.10;100.00;97270.88;1028944;28;20093;-71
2021/12/19 01:17:33;;;;;;;518.88;59.20;;;;;;;-2.14;100.00;97254.94;1027258;28;20022;-73
2021/12/19 01:18:04;;;;;;;323.95;54.60;;;;;;;-2.07;100.00;97274.94;1026966;28;20037;-73
2021/12/19 01:18:34;;;;;;;340.98;52.75;;;;;;;-2.06;100.00;97272.22;1023292;28;20027;-71
2021/12/19 01:19:05;;;;;;;402.95;59.22;;;;;;;-2.06;100.00;97273.97;1026921;28;20027;-72
2021/12/19 01:19:35;;;;;;;332.40;55.47;;;;;;;-2.06;100.00;97271.41;1027243;28;20038;-71
2021/12/19 01:20:25;;;;;;;455.98;58.35;;;;;;;-2.01;100.00;97280.31;1024718;28;20110;-71
2021/12/19 01:20:56;;;;;;;323.50;51.10;;;;;;;-2.07;100.00;97274.94;1021811;29;20030;-70
2021/12/19 01:21:26;;;;;;;443.88;56.78;;;;;;;-1.99;100.00;97285.28;1022357;29;20081;-73
2021/12/19 01:21:57;;;;;;;402.63;55.20;;;;;;;-2.03;100.00;97281.41;1025602;28;20035;-70
2021/12/19 01:22:27;;;;;;;459.52;58.58;;;;;;;-2.03;100.00;97276.25;1024990;28;20086;-71
2021/12/19 01:22:58;;;;;;;417.88;57.45;;;;;;;-2.01;100.00;97282.03;1020933;28;20039;-72
2021/12/19 01:23:28;;;;;;;379.90;54.72;;;;;;;-2.13;100.00;97256.53;1027435;28;20062;-71
2021/12/19 01:23:59;;;;;;;340.05;54.47;;;;;;;-1.93;100.00;97282.94;1026003;28;20071;-72
2021/12/19 01:24:29;;;;;;;358.70;54.80;;;;;;;-1.98;100.00;97281.75;1025018;28;20035;-71
2021/12/19 01:25:00;;;;;;;452.35;54.03;;;;;;;-2.05;100.00;97271.25;1029801;28;20747;-72
2021/12/19 01:25:30;;;;;;;481.30;57.72;;;;;;;-1.95;100.00;97278.91;1026515;28;20022;-70
2021/12/19 01:26:01;;;;;;;425.83;57.97;;;;;;;-1.91;100.00;97282.81;1027818;28;20042;-71
2021/12/19 01:26:31;;;;;;;334.20;51.25;;;;;;;-1.89;100.00;97283.47;1018694;29;20536;-71
2021/12/19 01:27:02;;;;;;;407.73;54.08;;;;;;;-1.86;100.00;97284.94;1017719;29;20122;-71
2021/12/19 01:27:33;;;;;;;622.15;59.92;;;;;;;-2.06;100.00;97258.53;1017225;28;20057;-71
2021/12/19 01:28:03;;;;;;;622.15;62.22;;;;;;;-1.95;100.00;97278.91;1022803;28;20334;-70
2021/12/19 01:28:34;;;;;;;539.38;54.85;;;;;;;-1.95;100.00;97274.56;1025761;28;20058;-70
2021/12/19 01:29:04;;;;;;;465.80;56.17;;;;;;;-1.93;100.00;97274.44;1025521;28;20026;-72
2021/12/19 01:29:35;;;;;;;288.48;47.40;;;;;;;-1.89;100.00;97275.75;1027407;28;20022;-71
2021/12/19 01:30:06;;;;;;;486.13;54.70;;;;;;;-1.91;100.00;97277.69;1027664;28;20030;-71
2021/12/19 01:30:36;;;;;;;481.48;57.36;;;;;;;-2.05;100.00;97263.53;1030489;28;20030;-73
2021/12/19 01:31:07;;;;;;;436.60;58.72;;;;;;;-2.03;100.00;97266.78;1028890;28;20018;-72
2021/12/19 01:31:37;;;;;;;391.77;54.70;;;;;;;-2.00;100.00;97275.97;1025295;28;20042;-71
2021/12/19 01:32:08;;;;;;;491.05;56.30;;;;;;;-1.97;100.00;97283.41;1026797;28;20021;-71
2021/12/19 01:32:38;;;;;;;545.35;59.85;;;;;;;-2.03;100.00;97271.13;1026788;28;20022;-70
2021/12/19 01:33:09;;;;;;;449.92;53.40;;;;;;;-2.12;100.00;97257.34;1025589;28;20194;-71
2021/12/19 01:33:39;;;;;;;542.95;58.35;;;;;;;-2.01;100.00;97279.47;1018724;29;20020;-70
2021/12/19 01:34:13;;;;;;;495.88;52.10;;;;;;;-2.11;100.00;97268.44;1014947;29;20024;-72
2021/12/19 01:34:43;;;;;;;467.52;56.42;;;;;;;-2.07;100.00;97283.44;1015985;29;20023;-71
2021/12/19 01:35:15;;;;;;;521.60;60.67;;;;;;;-2.11;100.00;97268.44;1023614;28;20019;-71
2021/12/19 01:35:45;;;;;;;577.22;58.86;;;;;;;-2.01;100.00;97279.47;1030937;28;20014;-71
2021/12/19 01:36:16;;;;;;;458.52;56.38;;;;;;;-2.00;100.00;97281.91;1030911;28;20538;-71
2021/12/19 01:36:46;;;;;;;405.60;51.80;;;;;;;-1.96;100.00;97280.66;1032071;28;20530;-74
2021/12/19 01:37:16;;;;;;;534.60;59.72;;;;;;;-1.96;100.00;97274.72;1034967;28;20034;-71
2021/12/19 01:37:47;;;;;;;328.83;47.63;;;;;;;-1.94;100.00;97281.34;1026756;28;20022;-73
2021/12/19 01:38:18;;;;;;;481.70;56.58;;;;;;;-1.92;100.00;97273.47;1020461;29;20071;-72
2021/12/19 01:38:48;;;;;;;519.47;58.65;;;;;;;-2.05;100.00;97262.72;1023860;28;20039;-71
2021/12/19 01:39:18;;;;;;;492.45;56.08;;;;;;;-2.03;100.00;97273.69;1026850;28;20026;-71
2021/12/19 01:39:49;;;;;;;639.17;63.75;;;;;;;-2.06;100.00;97276.53;1026445;28;20044;-70
2021/12/19 01:40:20;;;;;;;508.45;55.53;;;;;;;-2.13;100.00;97266.03;1022694;28;20035;-70
2021/12/19 01:40:50;;;;;;;572.55;53.08;;;;;;;-2.14;100.00;97270.38;1014008;29;20024;-71
2021/12/19 01:41:21;;;;;;;500.10;52.45;;;;;;;-2.14;100.00;97265.22;1015042;29;21049;-74
2021/12/19 01:41:54;;;;;;;443.13;51.28;;;;;;;-2.14;100.00;97265.22;1024917;28;20058;-72
2021/12/19 01:42:31;;;;;;;562.60;54.30;;;;;;;-2.15;100.00;97271.34;1026169;28;20595;-71
2021/12/19 01:43:02;;;;;;;532.34;53.14;;;;;;;-2.25;100.00;97259.47;1022755;29;20023;-72
2021/12/19 01:43:32;;;;;;;395.42;49.15;;;;;;;-2.14;100.00;97265.22;1020689;29;20044;-72
2021/12/19 01:44:03;;;;;;;449.65;50.03;;;;;;;-2.08;100.00;97274.09;1020226;29;20095;-72
2021/12/19 01:44:33;;;;;;;580.92;56.22;;;;;;;-2.08;100.00;97268.16;1019012;29;20019;-73
2021/12/19 01:45:05;;;;;;;478.10;52.65;;;;;;;-2.05;100.00;97273.00;1026486;28;20030;-72
2021/12/19 01:45:38;;;;;;;414.92;47.62;;;;;;;-2.03;100.00;97277.06;1026834;28;20460;-71
2021/12/19 01:46:08;;;;;;;351.98;46.64;;;;;;;-2.06;100.00;97271.41;1031328;28;20109;-73
2021/12/19 01:46:39;;;;;;;465.45;44.90;;;;;;;-2.11;100.00;97268.44;1030656;28;20026;-73
2021/12/19 01:47:10;;;;;;;517.80;53.65;;;;;;;-2.18;100.00;97263.06;1030529;28;20030;-71
2021/12/19 01:47:40;;;;;;;527.38;52.36;;;;;;;-2.18;100.00;97276.75;1019657;29;20019;-71
2021/12/19 01:48:11;;;;;;;394.80;46.53;;;;;;;-2.21;100.00;97264.19;1016292;29;20028;-71
2021/12/19 01:48:41;;;;;;;608.63;58.83;;;;;;;-2.20;100.00;97276.09;1026918;28;20500;-73
2021/12/19 01:49:13;;;;;;;440.27;48.80;;;;;;;-2.17;100.00;97275.00;1022870;29;20018;-73
2021/12/19 01:49:43;;;;;;;403.24;46.50;;;;;;;-2.18;100.00;97271.63;1014844;29;20108;-71
2021/12/19 01:50:14;;;;;;;619.22;57.78;;;;;;;-2.17;100.00;97280.94;1020764;29;20031;-71
2021/12/19 01:50:44;;;;;;;417.10;53.58;;;;;;;-2.09;100.00;97282.78;1022991;28;20027;-72
2021/12/19 01:51:15;;;;;;;556.13;57.28;;;;;;;-2.13;100.00;97277.13;1027121;28;20053;-72
2021/12/19 01:51:45;;;;;;;400.90;50.92;;;;;;;-2.10;100.00;97280.38;1033086;28;20022;-71
2021/12/19 01:52:16;;;;;;;432.42;52.60;;;;;;;-2.10;100.00;97280.38;1034886;28;20127;-74
2021/12/19 01:52:46;;;;;;;520.72;56.20;;;;;;;-2.17;100.00;97272.41;1032166;28;20018;-70
2021/12/19 01:53:17;;;;;;;485.15;50.25;;;;;;;-2.13;100.00;97274.53;1033213;28;20029;-71
2021/12/19 01:53:48;;;;;;;440.17;55.10;;;;;;;-2.05;100.00;97278.16;1027148;28;20468;-71
2021/12/19 01:54:18;;;;;;;513.58;56.70;;;;;;;-2.06;100.00;97273.97;1022056;29;20127;-72
2021/12/19 01:54:49;;;;;;;481.42;54.90;;;;;;;-2.02;100.00;97277.88;1014132;29;20035;-69
2021/12/19 01:55:20;;;;;;;362.74;49.62;;;;;;;-2.03;100.00;97273.69;1022037;29;20492;-72
2021/12/19 01:55:51;;;;;;;444.88;51.70;;;;;;;-2.04;100.00;97275.44;1027199;28;20026;-72
2021/12/19 01:56:21;;;;;;;414.30;47.38;;;;;;;-2.03;100.00;97273.69;1023272;29;20015;-73
2021/12/19 01:56:52;;;;;;;436.25;50.47;;;;;;;-2.07;100.00;97269.78;1023943;28;20146;-72
2021/12/19 01:57:25;;;;;;;502.76;53.64;;;;;;;-2.08;100.00;97273.28;1022905;29;20026;-71
2021/12/19 01:57:55;;;;;;;475.62;54.40;;;;;;;-2.12;100.00;97265.06;1023075;29;20074;-72
2021/12/19 01:58:26;;;;;;;564.83;52.53;;;;;;;-2.17;100.00;97275.78;1023322;28;20074;-73
2021/12/19 01:58:56;;;;;;;512.22;54.85;;;;;;;-2.19;100.00;97267.41;1031923;28;20041;-71
2021/12/19 01:59:26;;;;;;;536.47;56.30;;;;;;;-2.18;100.00;97274.19;1035763;28;20848;-73
2021/12/19 01:59:57;;;;;;;532.15;54.28;;;;;;;-2.23;100.00;97267.84;1030851;28;20360;-70
2021/12/19 02:00:39;;;;;;;517.90;54.47;;;;;;;-2.19;100.00;97277.69;1022836;28;20679;-73
2021/12/19 02:01:09;;;;;;;450.32;50.78;;;;;;;-2.17;100.00;97273.22;1019471;29;20024;-72
2021/12/19 02:01:47;;;;;;;456.13;50.55;;;;;;;-2.24;100.00;97266.25;1020066;28;20498;-73
2021/12/19 02:02:18;;;;;;;487.67;55.22;;;;;;;-2.23;100.00;97260.94;1024897;28;20419;-72
2021/12/19 02:02:48;;;;;;;506.65;55.00;;;;;;;-2.21;100.00;97269.34;1028474;28;20026;-72
2021/12/19 02:03:19;;;;;;;449.35;50.38;;;;;;;-2.15;100.00;97275.63;1023810;29;20022;-72
2021/12/19 02:03:49;;;;;;;653.35;57.40;;;;;;;-2.20;100.00;97276.09;1016574;29;20092;-72
2021/12/19 02:04:21;;;;;;;541.10;57.17;;;;;;;-2.24;100.00;97268.81;1019402;29;20094;-74
2021/12/19 02:04:51;;;;;;;519.14;54.36;;;;;;;-2.11;100.00;97276.16;1019626;28;20023;-73
2021/12/19 02:05:22;;;;;;;469.95;54.28;;;;;;;-2.23;100.00;97266.09;1032718;28;20653;-72
2021/12/19 02:05:53;;;;;;;448.80;53.33;;;;;;;-2.13;100.00;97274.53;1031629;28;20109;-72
2021/12/19 02:06:23;;;;;;;537.78;55.85;;;;;;;-2.11;100.00;97282.13;1019126;29;20020;-71
2021/12/19 02:06:54;;;;;;;511.23;56.33;;;;;;;-2.11;100.00;97277.00;1025817;28;20019;-72
2021/12/19 02:07:26;;;;;;;507.90;57.25;;;;;;;-2.08;100.00;97273.28;1027222;28;20499;-71
2021/12/19 02:07:56;;;;;;;460.72;52.64;;;;;;;-2.13;100.00;97266.03;1027439;28;20026;-72
2021/12/19 02:08:27;;;;;;;526.67;56.20;;;;;;;-2.21;100.00;97253.09;1026770;28;20026;-72
2021/12/19 02:09:03;;;;;;;498.60;52.42;;;;;;;-2.18;100.00;97263.91;1022562;28;20104;-73
2021/12/19 02:09:34;;;;;;;484.84;49.22;;;;;;;-2.18;100.00;97263.91;1031442;28;20177;-72
2021/12/19 02:10:04;;;;;;;411.45;50.53;;;;;;;-2.14;100.00;97267.78;1034862;28;20057;-72
2021/12/19 02:10:35;;;;;;;411.77;49.15;;;;;;;-2.21;100.00;97253.91;1030357;28;20026;-69
2021/12/19 02:11:07;;;;;;;438.60;53.33;;;;;;;-2.07;100.00;97272.38;1026474;28;20029;-72
2021/12/19 02:11:38;;;;;;;347.98;48.00;;;;;;;-2.01;100.00;97269.19;1023214;29;20389;-71
2021/12/19 02:12:09;;;;;;;325.52;47.88;;;;;;;-2.06;100.00;97255.97;1017355;29;20048;-74
2021/12/19 02:12:39;;;;;;;525.88;53.10;;;;;;;-2.03;100.00;97276.25;1023260;29;20032;-73
2021/12/19 02:13:11;;;;;;;445.60;49.70;;;;;;;-2.16;100.00;97259.41;1027303;28;20037;-72
2021/12/19 02:13:42;;;;;;;476.42;49.64;;;;;;;-2.06;100.00;97276.53;1019839;29;20469;-70
2021/12/19 02:14:12;;;;;;;398.17;49.92;;;;;;;-2.07;100.00;97272.38;1019303;29;20026;-72
2021/12/19 02:14:43;;;;;;;376.02;44.78;;;;;;;-2.10;100.00;97260.59;1019878;28;20047;-72
2021/12/19 02:15:17;;;;;;;348.55;43.15;;;;;;;-2.15;100.00;97258.47;1027509;28;20035;-74
2021/12/19 02:15:48;;;;;;;381.27;46.22;;;;;;;-2.02;100.00;97275.28;1028485;28;20018;-73
2021/12/19 02:16:19;;;;;;;352.63;45.47;;;;;;;-2.04;100.00;97278.03;1027344;28;20744;-72
2021/12/19 02:16:49;;;;;;;393.28;45.10;;;;;;;-2.05;100.00;97273.00;1015354;29;20020;-72
2021/12/19 02:17:20;;;;;;;441.20;46.78;;;;;;;-2.07;100.00;97268.03;1015543;29;20032;-73
2021/12/19 02:17:52;;;;;;;403.73;45.05;;;;;;;-2.15;100.00;97263.63;1019515;29;20070;-71
2021/12/19 02:18:23;;;;;;;381.22;42.24;;;;;;;-2.16;100.00;97272.25;1021418;28;20020;-72
2021/12/19 02:18:53;;;;;;;551.78;46.15;;;;;;;-2.25;100.00;97259.47;1027286;28;20030;-72
2021/12/19 02:19:26;;;;;;;440.08;49.10;;;;;;;-2.16;100.00;97274.84;1019274;29;20071;-71
2021/12/19 02:19:57;;;;;;;427.92;45.14;;;;;;;-2.17;100.00;97275.78;1019834;28;20096;-70
2021/12/19 02:20:34;;;;;;;414.00;42.20;;;;;;;-2.20;100.00;97273.50;1027696;28;20035;-72
2021/12/19 02:21:04;;;;;;;405.44;40.18;;;;;;;-2.24;100.00;97264.47;1032584;28;20117;-72
2021/12/19 02:21:35;;;;;;;443.63;45.88;;;;;;;-2.25;100.00;97262.03;1031324;28;20053;-74
2021/12/19 02:22:05;;;;;;;451.92;48.88;;;;;;;-2.20;100.00;97275.28;1027032;28;20019;-71
2021/12/19 02:22:36;;;;;;;438.38;49.58;;;;;;;-2.25;100.00;97267.97;1023403;28;20031;-72
2021/12/19 02:23:07;;;;;;;339.70;40.25;;;;;;;-2.19;100.00;97277.69;1023168;28;20027;-72
2021/12/19 02:23:38;;;;;;;446.96;49.78;;;;;;;-2.22;100.00;97265.13;1023046;28;20135;-72
2021/12/19 02:24:10;;;;;;;432.53;46.03;;;;;;;-2.14;100.00;97261.84;1027469;28;20030;-72
2021/12/19 02:24:40;;;;;;;424.24;44.06;;;;;;;-2.18;100.00;97258.75;1023495;28;20019;-72
2021/12/19 02:25:11;;;;;;;391.85;45.90;;;;;;;-2.09;100.00;97271.69;1025609;28;20023;-72
2021/12/19 02:25:41;;;;;;;541.10;51.35;;;;;;;-2.16;100.00;97261.19;1023385;29;20019;-71
2021/12/19 02:26:15;;;;;;;468.58;48.20;;;;;;;-2.10;100.00;97268.31;1019249;29;20055;-72